sensor_id;sensor_type;location;lat;lon;timestamp;pressure;altitude;pressure_sealevel;temperature;humidity
12781;BME280;6454;43.304;24.344;2022-09-12T00:01:16;99923.03;;;19.97;67.31
12781;BME280;6454;43.304;24.344;2022-09-12T00:03:45;99926.13;;;19.95;68.43
12781;BME280;6454;43.304;24.344;2022-09-12T00:06:15;99915.81;;;19.92;69.08
12781;BME280;6454;43.304;24.344;2022-09-12T00:08:43;99912.06;;;19.84;68.56
12781;BME280;6454;43.304;24.344;2022-09-12T00:11:11;99917.84;;;19.79;68.44
12781;BME280;6454;43.304;24.344;2022-09-12T00:13:40;99927.59;;;19.77;68.39
12781;BME280;6454;43.304;24.344;2022-09-12T00:16:12;99926.91;;;19.80;68.81
12781;BME280;6454;43.304;24.344;2022-09-12T00:18:40;99930.00;;;19.78;68.95
12781;BME280;6454;43.304;24.344;2022-09-12T00:21:07;99925.91;;;19.72;69.70
12781;BME280;6454;43.304;24.344;2022-09-12T00:23:34;99929.97;;;19.63;70.01
12781;BME280;6454;43.304;24.344;2022-09-12T00:26:03;99940.34;;;19.54;70.30
12781;BME280;6454;43.304;24.344;2022-09-12T00:28:35;99939.00;;;19.48;70.62
12781;BME280;6454;43.304;24.344;2022-09-12T00:31:05;99932.25;;;19.45;70.98
12781;BME280;6454;43.304;24.344;2022-09-12T00:33:32;99931.13;;;19.34;71.48
12781;BME280;6454;43.304;24.344;2022-09-12T00:36:03;99897.75;;;19.08;72.11
12781;BME280;6454;43.304;24.344;2022-09-12T00:38:30;99926.50;;;19.10;71.91
12781;BME280;6454;43.304;24.344;2022-09-12T00:40:58;99923.09;;;19.01;72.23
12781;BME280;6454;43.304;24.344;2022-09-12T00:43:38;99930.19;;;18.90;72.44
12781;BME280;6454;43.304;24.344;2022-09-12T00:46:12;99925.06;;;18.89;72.84
12781;BME280;6454;43.304;24.344;2022-09-12T00:48:45;99926.44;;;18.83;72.89
12781;BME280;6454;43.304;24.344;2022-09-12T00:51:16;99928.97;;;18.76;73.17
12781;BME280;6454;43.304;24.344;2022-09-12T00:53:45;99939.88;;;18.72;72.16
12781;BME280;6454;43.304;24.344;2022-09-12T00:56:14;99929.34;;;18.62;72.67
12781;BME280;6454;43.304;24.344;2022-09-12T00:58:50;99933.59;;;18.59;72.37
12781;BME280;6454;43.304;24.344;2022-09-12T01:01:18;99940.09;;;18.55;72.45
12781;BME280;6454;43.304;24.344;2022-09-12T01:03:46;99938.16;;;18.55;73.06
12781;BME280;6454;43.304;24.344;2022-09-12T01:06:15;99933.25;;;18.49;73.17
12781;BME280;6454;43.304;24.344;2022-09-12T01:08:46;99933.56;;;18.47;73.70
12781;BME280;6454;43.304;24.344;2022-09-12T01:11:14;99938.00;;;18.40;73.74
12781;BME280;6454;43.304;24.344;2022-09-12T01:13:42;99933.09;;;18.33;74.30
12781;BME280;6454;43.304;24.344;2022-09-12T01:16:11;99938.22;;;18.35;74.84
12781;BME280;6454;43.304;24.344;2022-09-12T01:18:50;99940.28;;;18.26;75.11
12781;BME280;6454;43.304;24.344;2022-09-12T01:21:32;99937.91;;;18.24;74.66
12781;BME280;6454;43.304;24.344;2022-09-12T01:24:32;99938.34;;;18.14;74.71
12781;BME280;6454;43.304;24.344;2022-09-12T01:27:30;99943.25;;;18.09;74.42
12781;BME280;6454;43.304;24.344;2022-09-12T01:33:30;99934.13;;;18.05;74.91
12781;BME280;6454;43.304;24.344;2022-09-12T01:36:36;99926.56;;;18.01;74.96
12781;BME280;6454;43.304;24.344;2022-09-12T01:39:13;99920.91;;;17.86;75.24
12781;BME280;6454;43.304;24.344;2022-09-12T01:41:48;99924.00;;;17.84;74.91
12781;BME280;6454;43.304;24.344;2022-09-12T01:44:24;99831.59;;;17.19;75.06
12781;BME280;6454;43.304;24.344;2022-09-12T01:46:57;99921.94;;;17.81;74.70
12781;BME280;6454;43.304;24.344;2022-09-12T01:49:31;99916.66;;;17.76;74.73
12781;BME280;6454;43.304;24.344;2022-09-12T01:52:02;99920.81;;;17.82;74.53
12781;BME280;6454;43.304;24.344;2022-09-12T01:54:34;99910.97;;;17.81;74.43
12781;BME280;6454;43.304;24.344;2022-09-12T01:57:08;99911.88;;;17.85;74.61
12781;BME280;6454;43.304;24.344;2022-09-12T01:59:40;99904.44;;;17.86;74.66
12781;BME280;6454;43.304;24.344;2022-09-12T02:02:12;99911.41;;;17.83;74.65
12781;BME280;6454;43.304;24.344;2022-09-12T02:04:45;99916.22;;;17.86;74.12
12781;BME280;6454;43.304;24.344;2022-09-12T02:07:19;99912.69;;;17.86;73.96
12781;BME280;6454;43.304;24.344;2022-09-12T02:09:49;99913.50;;;17.86;73.70
12781;BME280;6454;43.304;24.344;2022-09-12T02:12:23;99917.81;;;17.87;73.74
12781;BME280;6454;43.304;24.344;2022-09-12T02:14:56;99914.63;;;17.85;73.28
12781;BME280;6454;43.304;24.344;2022-09-12T02:17:25;99920.91;;;17.86;73.49
12781;BME280;6454;43.304;24.344;2022-09-12T02:19:57;99916.66;;;17.76;72.78
12781;BME280;6454;43.304;24.344;2022-09-12T02:22:26;99913.72;;;17.81;73.02
12781;BME280;6454;43.304;24.344;2022-09-12T02:24:58;99904.88;;;17.76;72.57
12781;BME280;6454;43.304;24.344;2022-09-12T02:27:29;99914.50;;;17.82;71.85
12781;BME280;6454;43.304;24.344;2022-09-12T02:29:59;99916.09;;;17.83;71.77
12781;BME280;6454;43.304;24.344;2022-09-12T02:32:29;99913.03;;;17.84;72.08
12781;BME280;6454;43.304;24.344;2022-09-12T02:35:07;99914.84;;;17.80;72.56
12781;BME280;6454;43.304;24.344;2022-09-12T02:37:46;99914.63;;;17.85;72.01
12781;BME280;6454;43.304;24.344;2022-09-12T02:40:17;99912.81;;;17.89;72.51
12781;BME280;6454;43.304;24.344;2022-09-12T02:42:44;99906.28;;;17.94;72.30
12781;BME280;6454;43.304;24.344;2022-09-12T02:45:12;99917.66;;;18.05;72.10
12781;BME280;6454;43.304;24.344;2022-09-12T02:47:43;99913.41;;;18.07;72.52
12781;BME280;6454;43.304;24.344;2022-09-12T02:50:13;99911.13;;;18.09;72.23
12781;BME280;6454;43.304;24.344;2022-09-12T02:52:41;99907.22;;;18.10;71.87
12781;BME280;6454;43.304;24.344;2022-09-12T02:55:08;99898.88;;;18.07;71.77
12781;BME280;6454;43.304;24.344;2022-09-12T02:57:37;99896.50;;;18.17;71.36
12781;BME280;6454;43.304;24.344;2022-09-12T03:00:05;99898.19;;;18.22;71.40
12781;BME280;6454;43.304;24.344;2022-09-12T03:02:44;99906.66;;;18.17;70.97
12781;BME280;6454;43.304;24.344;2022-09-12T03:05:21;99915.22;;;18.15;71.34
12781;BME280;6454;43.304;24.344;2022-09-12T03:08:00;99905.50;;;18.06;71.70
12781;BME280;6454;43.304;24.344;2022-09-12T03:10:37;99909.63;;;17.99;71.50
12781;BME280;6454;43.304;24.344;2022-09-12T03:13:14;99918.53;;;17.96;71.65
12781;BME280;6454;43.304;24.344;2022-09-12T03:15:51;99917.94;;;17.91;71.81
12781;BME280;6454;43.304;24.344;2022-09-12T03:18:36;99917.59;;;17.92;71.62
12781;BME280;6454;43.304;24.344;2022-09-12T03:21:12;99917.03;;;17.87;71.84
12781;BME280;6454;43.304;24.344;2022-09-12T03:23:45;99918.53;;;17.84;71.85
12781;BME280;6454;43.304;24.344;2022-09-12T03:26:23;99920.69;;;17.79;72.04
12781;BME280;6454;43.304;24.344;2022-09-12T03:28:53;99910.69;;;17.62;72.06
12781;BME280;6454;43.304;24.344;2022-09-12T03:31:21;99920.44;;;17.72;72.10
12781;BME280;6454;43.304;24.344;2022-09-12T03:33:48;99929.25;;;17.77;72.06
12781;BME280;6454;43.304;24.344;2022-09-12T03:36:19;99928.22;;;17.70;72.07
12781;BME280;6454;43.304;24.344;2022-09-12T03:38:48;99928.88;;;17.67;72.13
12781;BME280;6454;43.304;24.344;2022-09-12T03:41:15;99923.72;;;17.65;72.24
12781;BME280;6454;43.304;24.344;2022-09-12T03:43:41;99923.50;;;17.70;72.51
12781;BME280;6454;43.304;24.344;2022-09-12T03:46:08;99926.81;;;17.64;72.34
12781;BME280;6454;43.304;24.344;2022-09-12T03:48:36;99933.09;;;17.64;72.36
12781;BME280;6454;43.304;24.344;2022-09-12T03:51:04;99938.78;;;17.59;72.44
12781;BME280;6454;43.304;24.344;2022-09-12T03:53:33;99934.91;;;17.60;72.71
12781;BME280;6454;43.304;24.344;2022-09-12T03:56:05;99894.31;;;17.33;72.41
12781;BME280;6454;43.304;24.344;2022-09-12T03:58:32;99932.72;;;17.54;72.64
12781;BME280;6454;43.304;24.344;2022-09-12T04:01:05;99932.03;;;17.57;72.82
12781;BME280;6454;43.304;24.344;2022-09-12T04:03:36;99928.34;;;17.53;72.97
12781;BME280;6454;43.304;24.344;2022-09-12T04:06:03;99935.03;;;17.43;73.25
12781;BME280;6454;43.304;24.344;2022-09-12T04:08:30;99934.03;;;17.48;72.91
12781;BME280;6454;43.304;24.344;2022-09-12T04:11:03;99929.22;;;17.45;73.37
12781;BME280;6454;43.304;24.344;2022-09-12T04:13:30;99937.31;;;17.41;73.25
12781;BME280;6454;43.304;24.344;2022-09-12T04:15:58;99940.53;;;17.43;73.13
12781;BME280;6454;43.304;24.344;2022-09-12T04:18:25;99939.50;;;17.48;73.54
12781;BME280;6454;43.304;24.344;2022-09-12T04:20:52;99940.66;;;17.47;73.52
12781;BME280;6454;43.304;24.344;2022-09-12T04:23:19;99897.13;;;17.12;73.63
12781;BME280;6454;43.304;24.344;2022-09-12T04:25:52;99941.47;;;17.47;73.27
12781;BME280;6454;43.304;24.344;2022-09-12T04:28:21;99947.47;;;17.40;73.96
12781;BME280;6454;43.304;24.344;2022-09-12T04:30:49;99946.94;;;17.47;73.77
12781;BME280;6454;43.304;24.344;2022-09-12T04:33:16;99949.22;;;17.45;73.92
12781;BME280;6454;43.304;24.344;2022-09-12T04:35:43;99945.19;;;17.42;73.83
12781;BME280;6454;43.304;24.344;2022-09-12T04:38:10;99945.69;;;17.45;74.03
12781;BME280;6454;43.304;24.344;2022-09-12T04:40:37;99952.53;;;17.51;74.03
12781;BME280;6454;43.304;24.344;2022-09-12T04:43:05;99955.56;;;17.58;74.04
12781;BME280;6454;43.304;24.344;2022-09-12T04:45:34;99954.09;;;17.60;74.26
12781;BME280;6454;43.304;24.344;2022-09-12T04:48:01;99958.38;;;17.70;73.78
12781;BME280;6454;43.304;24.344;2022-09-12T04:50:28;99960.69;;;17.80;73.68
12781;BME280;6454;43.304;24.344;2022-09-12T04:52:55;99915.91;;;17.55;73.01
12781;BME280;6454;43.304;24.344;2022-09-12T04:55:22;99969.19;;;17.99;72.80
12781;BME280;6454;43.304;24.344;2022-09-12T04:57:49;99968.75;;;18.09;72.12
12781;BME280;6454;43.304;24.344;2022-09-12T05:00:17;99969.13;;;18.20;71.80
12781;BME280;6454;43.304;24.344;2022-09-12T05:02:45;99969.59;;;18.34;71.31
12781;BME280;6454;43.304;24.344;2022-09-12T05:05:12;99966.41;;;18.44;71.29
12781;BME280;6454;43.304;24.344;2022-09-12T05:07:39;99981.78;;;18.57;70.81
12781;BME280;6454;43.304;24.344;2022-09-12T05:10:07;99971.09;;;18.67;70.80
12781;BME280;6454;43.304;24.344;2022-09-12T05:12:34;99962.16;;;18.83;70.30
12781;BME280;6454;43.304;24.344;2022-09-12T05:15:01;99964.81;;;18.91;69.90
12781;BME280;6454;43.304;24.344;2022-09-12T05:17:29;99969.47;;;19.03;69.79
12781;BME280;6454;43.304;24.344;2022-09-12T05:19:57;99957.91;;;19.09;69.83
12781;BME280;6454;43.304;24.344;2022-09-12T05:22:25;99962.69;;;19.12;68.77
12781;BME280;6454;43.304;24.344;2022-09-12T05:24:51;99957.28;;;19.16;68.37
12781;BME280;6454;43.304;24.344;2022-09-12T05:27:18;99961.75;;;19.20;68.37
12781;BME280;6454;43.304;24.344;2022-09-12T05:29:45;99961.88;;;19.24;68.50
12781;BME280;6454;43.304;24.344;2022-09-12T05:32:12;99968.63;;;19.26;68.02
12781;BME280;6454;43.304;24.344;2022-09-12T05:34:39;99977.06;;;19.34;67.71
12781;BME280;6454;43.304;24.344;2022-09-12T05:37:07;99972.72;;;19.33;67.86
12781;BME280;6454;43.304;24.344;2022-09-12T05:39:34;99969.50;;;19.30;67.93
12781;BME280;6454;43.304;24.344;2022-09-12T05:42:01;99966.06;;;19.34;67.60
12781;BME280;6454;43.304;24.344;2022-09-12T05:44:28;99967.13;;;19.29;68.19
12781;BME280;6454;43.304;24.344;2022-09-12T05:46:55;99968.63;;;19.26;67.92
12781;BME280;6454;43.304;24.344;2022-09-12T05:49:22;99967.00;;;19.25;68.29
12781;BME280;6454;43.304;24.344;2022-09-12T05:51:49;99966.56;;;19.23;68.57
12781;BME280;6454;43.304;24.344;2022-09-12T05:54:18;99961.81;;;19.36;68.31
12781;BME280;6454;43.304;24.344;2022-09-12T05:56:45;99963.66;;;19.44;68.13
12781;BME280;6454;43.304;24.344;2022-09-12T05:59:15;99950.44;;;19.50;67.78
12781;BME280;6454;43.304;24.344;2022-09-12T06:01:43;99951.91;;;19.59;66.49
12781;BME280;6454;43.304;24.344;2022-09-12T06:04:10;99959.66;;;19.69;66.11
12781;BME280;6454;43.304;24.344;2022-09-12T06:06:39;99934.97;;;19.73;65.72
12781;BME280;6454;43.304;24.344;2022-09-12T06:09:08;99948.59;;;19.97;64.71
12781;BME280;6454;43.304;24.344;2022-09-12T06:11:38;99952.00;;;20.06;64.66
12781;BME280;6454;43.304;24.344;2022-09-12T06:14:07;99955.34;;;20.15;63.24
12781;BME280;6454;43.304;24.344;2022-09-12T06:16:35;99947.19;;;20.19;63.53
12781;BME280;6454;43.304;24.344;2022-09-12T06:19:04;99947.75;;;20.24;63.58
12781;BME280;6454;43.304;24.344;2022-09-12T06:21:32;99961.44;;;20.36;62.89
12781;BME280;6454;43.304;24.344;2022-09-12T06:24:00;99952.44;;;20.39;62.69
12781;BME280;6454;43.304;24.344;2022-09-12T06:26:27;99953.78;;;20.45;62.17
12781;BME280;6454;43.304;24.344;2022-09-12T06:28:56;99966.84;;;20.48;62.40
12781;BME280;6454;43.304;24.344;2022-09-12T06:31:26;99956.38;;;20.54;61.89
12781;BME280;6454;43.304;24.344;2022-09-12T06:33:55;99979.91;;;20.67;61.96
12781;BME280;6454;43.304;24.344;2022-09-12T06:36:24;99970.91;;;20.70;60.95
12781;BME280;6454;43.304;24.344;2022-09-12T06:38:54;99988.16;;;20.83;61.29
12781;BME280;6454;43.304;24.344;2022-09-12T06:41:22;99978.53;;;20.77;60.21
12781;BME280;6454;43.304;24.344;2022-09-12T06:43:49;99969.81;;;20.90;60.92
12781;BME280;6454;43.304;24.344;2022-09-12T06:46:18;99969.69;;;21.02;60.25
12781;BME280;6454;43.304;24.344;2022-09-12T06:48:45;99978.22;;;21.13;60.24
12781;BME280;6454;43.304;24.344;2022-09-12T06:51:14;99972.16;;;21.23;59.45
12781;BME280;6454;43.304;24.344;2022-09-12T06:53:42;99960.81;;;21.09;59.45
12781;BME280;6454;43.304;24.344;2022-09-12T06:56:11;99973.91;;;21.31;58.79
12781;BME280;6454;43.304;24.344;2022-09-12T06:58:38;99966.63;;;21.42;59.69
12781;BME280;6454;43.304;24.344;2022-09-12T07:01:08;99969.19;;;21.51;59.26
12781;BME280;6454;43.304;24.344;2022-09-12T07:03:37;99976.44;;;21.59;58.37
12781;BME280;6454;43.304;24.344;2022-09-12T07:06:05;99970.13;;;21.58;56.65
12781;BME280;6454;43.304;24.344;2022-09-12T07:08:33;99973.75;;;21.62;56.14
12781;BME280;6454;43.304;24.344;2022-09-12T07:11:08;99974.47;;;21.59;55.71
12781;BME280;6454;43.304;24.344;2022-09-12T07:13:36;99977.75;;;21.65;55.76
12781;BME280;6454;43.304;24.344;2022-09-12T07:16:04;99987.25;;;21.67;55.30
12781;BME280;6454;43.304;24.344;2022-09-12T07:18:31;99969.25;;;21.73;56.26
12781;BME280;6454;43.304;24.344;2022-09-12T07:21:00;99980.44;;;21.80;55.27
12781;BME280;6454;43.304;24.344;2022-09-12T07:23:29;99982.94;;;21.86;55.17
12781;BME280;6454;43.304;24.344;2022-09-12T07:25:57;99982.47;;;21.83;55.87
12781;BME280;6454;43.304;24.344;2022-09-12T07:28:25;99999.31;;;21.98;55.32
12781;BME280;6454;43.304;24.344;2022-09-12T07:30:52;99999.75;;;22.00;55.77
12781;BME280;6454;43.304;24.344;2022-09-12T07:33:19;99994.09;;;21.93;54.91
12781;BME280;6454;43.304;24.344;2022-09-12T07:35:46;99987.47;;;21.97;56.14
12781;BME280;6454;43.304;24.344;2022-09-12T07:38:15;99991.13;;;22.01;55.44
12781;BME280;6454;43.304;24.344;2022-09-12T07:40:42;99987.97;;;22.03;55.37
12781;BME280;6454;43.304;24.344;2022-09-12T07:43:09;99994.47;;;22.14;55.10
12781;BME280;6454;43.304;24.344;2022-09-12T07:45:36;99991.00;;;22.17;54.54
12781;BME280;6454;43.304;24.344;2022-09-12T07:48:06;100003.34;;;22.23;55.16
12781;BME280;6454;43.304;24.344;2022-09-12T07:50:33;99993.09;;;22.23;54.42
12781;BME280;6454;43.304;24.344;2022-09-12T07:53:01;99987.63;;;22.27;54.59
12781;BME280;6454;43.304;24.344;2022-09-12T07:55:29;99979.75;;;22.29;55.19
12781;BME280;6454;43.304;24.344;2022-09-12T07:57:57;99990.94;;;22.36;55.93
12781;BME280;6454;43.304;24.344;2022-09-12T08:00:24;99987.88;;;22.41;54.78
12781;BME280;6454;43.304;24.344;2022-09-12T08:02:52;99985.47;;;22.39;53.48
12781;BME280;6454;43.304;24.344;2022-09-12T08:05:19;99977.88;;;22.33;54.13
12781;BME280;6454;43.304;24.344;2022-09-12T08:07:46;99974.69;;;22.31;53.68
12781;BME280;6454;43.304;24.344;2022-09-12T08:10:14;99989.09;;;22.43;53.27
12781;BME280;6454;43.304;24.344;2022-09-12T08:12:42;99970.00;;;22.35;52.79
12781;BME280;6454;43.304;24.344;2022-09-12T08:15:09;99978.72;;;22.37;53.24
12781;BME280;6454;43.304;24.344;2022-09-12T08:17:36;99978.09;;;22.47;53.67
12781;BME280;6454;43.304;24.344;2022-09-12T08:20:03;99973.09;;;22.56;52.47
12781;BME280;6454;43.304;24.344;2022-09-12T08:22:30;99946.63;;;22.55;52.68
12781;BME280;6454;43.304;24.344;2022-09-12T08:24:57;99973.97;;;22.60;52.53
12781;BME280;6454;43.304;24.344;2022-09-12T08:27:24;99962.63;;;22.65;52.68
12781;BME280;6454;43.304;24.344;2022-09-12T08:29:52;99959.31;;;22.82;52.88
12781;BME280;6454;43.304;24.344;2022-09-12T08:32:19;99957.31;;;22.79;51.62
12781;BME280;6454;43.304;24.344;2022-09-12T08:34:46;99955.41;;;22.83;51.70
12781;BME280;6454;43.304;24.344;2022-09-12T08:37:14;99953.47;;;22.87;50.01
12781;BME280;6454;43.304;24.344;2022-09-12T08:39:40;99954.50;;;22.76;50.77
12781;BME280;6454;43.304;24.344;2022-09-12T08:42:09;99947.94;;;22.87;50.37
12781;BME280;6454;43.304;24.344;2022-09-12T08:44:53;99948.91;;;22.98;49.88
12781;BME280;6454;43.304;24.344;2022-09-12T08:47:27;99932.16;;;22.88;50.06
12781;BME280;6454;43.304;24.344;2022-09-12T08:50:03;99940.47;;;22.91;49.87
12781;BME280;6454;43.304;24.344;2022-09-12T08:52:35;99945.69;;;22.96;49.78
12781;BME280;6454;43.304;24.344;2022-09-12T08:55:10;99936.56;;;22.92;48.91
12781;BME280;6454;43.304;24.344;2022-09-12T08:57:39;99939.84;;;23.01;48.15
12781;BME280;6454;43.304;24.344;2022-09-12T09:00:12;99929.31;;;23.11;48.28
12781;BME280;6454;43.304;24.344;2022-09-12T09:03:03;99920.28;;;23.17;49.11
12781;BME280;6454;43.304;24.344;2022-09-12T09:05:44;99921.66;;;23.34;48.97
12781;BME280;6454;43.304;24.344;2022-09-12T09:08:31;99926.91;;;23.39;48.67
12781;BME280;6454;43.304;24.344;2022-09-12T09:11:09;99916.59;;;23.36;48.00
12781;BME280;6454;43.304;24.344;2022-09-12T09:13:48;99918.53;;;23.35;48.58
12781;BME280;6454;43.304;24.344;2022-09-12T09:16:40;99913.06;;;23.39;48.23
12781;BME280;6454;43.304;24.344;2022-09-12T09:19:10;99932.56;;;23.49;48.09
12781;BME280;6454;43.304;24.344;2022-09-12T09:21:42;99919.53;;;23.50;47.16
12781;BME280;6454;43.304;24.344;2022-09-12T09:24:13;99930.28;;;23.58;47.60
12781;BME280;6454;43.304;24.344;2022-09-12T09:26:45;99916.03;;;23.53;46.66
12781;BME280;6454;43.304;24.344;2022-09-12T09:29:17;99915.34;;;23.63;47.21
12781;BME280;6454;43.304;24.344;2022-09-12T09:31:48;99902.59;;;23.58;47.60
12781;BME280;6454;43.304;24.344;2022-09-12T09:34:19;99910.84;;;23.88;47.52
12781;BME280;6454;43.304;24.344;2022-09-12T09:36:50;99918.53;;;24.05;46.37
12781;BME280;6454;43.304;24.344;2022-09-12T09:39:26;99914.31;;;23.78;46.02
12781;BME280;6454;43.304;24.344;2022-09-12T09:42:07;99907.44;;;23.65;46.27
12781;BME280;6454;43.304;24.344;2022-09-12T09:44:36;99905.19;;;23.78;47.03
12781;BME280;6454;43.304;24.344;2022-09-12T09:47:05;99915.06;;;23.75;46.38
12781;BME280;6454;43.304;24.344;2022-09-12T09:49:34;99905.13;;;23.70;46.67
12781;BME280;6454;43.304;24.344;2022-09-12T09:52:02;99910.00;;;23.81;44.70
12781;BME280;6454;43.304;24.344;2022-09-12T09:54:34;99897.75;;;23.48;45.47
12781;BME280;6454;43.304;24.344;2022-09-12T09:57:02;99916.22;;;23.37;46.17
12781;BME280;6454;43.304;24.344;2022-09-12T09:59:31;99930.13;;;23.41;46.73
12781;BME280;6454;43.304;24.344;2022-09-12T10:01:59;99935.41;;;23.56;46.90
12781;BME280;6454;43.304;24.344;2022-09-12T10:04:31;99919.16;;;23.51;46.42
12781;BME280;6454;43.304;24.344;2022-09-12T10:07:00;99925.63;;;23.66;46.34
12781;BME280;6454;43.304;24.344;2022-09-12T10:09:29;99926.84;;;23.68;45.27
12781;BME280;6454;43.304;24.344;2022-09-12T10:11:58;99921.66;;;23.63;46.37
12781;BME280;6454;43.304;24.344;2022-09-12T10:14:29;99923.03;;;23.80;46.35
12781;BME280;6454;43.304;24.344;2022-09-12T10:16:57;99913.19;;;23.86;45.18
12781;BME280;6454;43.304;24.344;2022-09-12T10:19:34;99912.59;;;24.07;44.99
12781;BME280;6454;43.304;24.344;2022-09-12T10:22:02;99914.75;;;24.20;44.99
12781;BME280;6454;43.304;24.344;2022-09-12T10:24:33;99898.13;;;24.24;44.86
12781;BME280;6454;43.304;24.344;2022-09-12T10:27:08;99900.22;;;24.38;45.05
12781;BME280;6454;43.304;24.344;2022-09-12T10:29:43;99902.28;;;24.48;44.94
12781;BME280;6454;43.304;24.344;2022-09-12T10:32:20;99900.34;;;24.59;44.41
12781;BME280;6454;43.304;24.344;2022-09-12T10:34:52;99894.41;;;24.57;44.12
12781;BME280;6454;43.304;24.344;2022-09-12T10:37:24;99893.25;;;24.61;44.48
12781;BME280;6454;43.304;24.344;2022-09-12T10:39:54;99882.91;;;24.55;44.44
12781;BME280;6454;43.304;24.344;2022-09-12T10:42:47;99898.72;;;24.51;43.69
12781;BME280;6454;43.304;24.344;2022-09-12T10:45:19;99902.28;;;24.51;44.94
12781;BME280;6454;43.304;24.344;2022-09-12T10:47:47;99903.91;;;24.56;43.14
12781;BME280;6454;43.304;24.344;2022-09-12T10:50:21;99902.69;;;24.50;43.60
12781;BME280;6454;43.304;24.344;2022-09-12T10:52:48;99911.81;;;24.54;43.37
12781;BME280;6454;43.304;24.344;2022-09-12T10:55:15;99907.81;;;24.48;42.29
12781;BME280;6454;43.304;24.344;2022-09-12T10:57:53;99911.34;;;24.45;43.43
12781;BME280;6454;43.304;24.344;2022-09-12T11:00:24;99897.97;;;24.61;43.88
12781;BME280;6454;43.304;24.344;2022-09-12T11:03:04;99891.31;;;24.69;43.38
12781;BME280;6454;43.304;24.344;2022-09-12T11:05:46;99886.13;;;24.60;42.86
12781;BME280;6454;43.304;24.344;2022-09-12T11:08:40;99889.88;;;24.85;43.08
12781;BME280;6454;43.304;24.344;2022-09-12T11:11:17;99895.88;;;25.02;42.69
12781;BME280;6454;43.304;24.344;2022-09-12T11:13:59;99889.56;;;25.08;42.63
12781;BME280;6454;43.304;24.344;2022-09-12T11:16:38;99904.63;;;25.07;41.06
12781;BME280;6454;43.304;24.344;2022-09-12T11:19:31;99915.69;;;24.96;41.94
12781;BME280;6454;43.304;24.344;2022-09-12T11:22:22;99897.63;;;24.66;42.57
12781;BME280;6454;43.304;24.344;2022-09-12T11:25:12;99893.28;;;24.65;43.29
12781;BME280;6454;43.304;24.344;2022-09-12T11:27:50;99898.47;;;24.70;41.74
12781;BME280;6454;43.304;24.344;2022-09-12T11:30:19;99887.72;;;24.65;42.51
12781;BME280;6454;43.304;24.344;2022-09-12T11:32:58;99899.16;;;24.53;42.78
12781;BME280;6454;43.304;24.344;2022-09-12T11:35:31;99877.81;;;24.64;43.13
12781;BME280;6454;43.304;24.344;2022-09-12T11:38:13;99802.34;;;24.30;43.11
12781;BME280;6454;43.304;24.344;2022-09-12T11:40:48;99880.03;;;25.02;42.72
12781;BME280;6454;43.304;24.344;2022-09-12T11:43:27;99870.97;;;25.12;42.32
12781;BME280;6454;43.304;24.344;2022-09-12T11:45:59;99884.09;;;25.22;41.56
12781;BME280;6454;43.304;24.344;2022-09-12T11:48:36;99874.56;;;25.23;40.25
12781;BME280;6454;43.304;24.344;2022-09-12T11:51:06;99880.88;;;25.17;41.10
12781;BME280;6454;43.304;24.344;2022-09-12T11:53:43;99827.91;;;24.67;42.34
12781;BME280;6454;43.304;24.344;2022-09-12T11:56:15;99902.56;;;24.90;41.78
12781;BME280;6454;43.304;24.344;2022-09-12T11:58:47;99876.03;;;24.92;41.88
12781;BME280;6454;43.304;24.344;2022-09-12T12:01:20;99852.59;;;24.83;40.96
12781;BME280;6454;43.304;24.344;2022-09-12T12:03:49;99881.66;;;25.10;41.92
12781;BME280;6454;43.304;24.344;2022-09-12T12:06:18;99870.97;;;25.19;42.17
12781;BME280;6454;43.304;24.344;2022-09-12T12:08:48;99884.09;;;25.29;41.99
12781;BME280;6454;43.304;24.344;2022-09-12T12:11:26;99751.72;;;24.44;41.14
12781;BME280;6454;43.304;24.344;2022-09-12T12:13:56;99883.72;;;25.38;40.19
12781;BME280;6454;43.304;24.344;2022-09-12T12:16:26;99875.41;;;25.34;41.07
12781;BME280;6454;43.304;24.344;2022-09-12T12:18:55;99882.06;;;25.16;41.05
12781;BME280;6454;43.304;24.344;2022-09-12T12:21:34;99870.03;;;24.87;41.43
12781;BME280;6454;43.304;24.344;2022-09-12T12:24:14;99866.88;;;24.88;41.30
12781;BME280;6454;43.304;24.344;2022-09-12T12:26:54;99866.53;;;25.01;41.45
12781;BME280;6454;43.304;24.344;2022-09-12T12:29:39;99864.09;;;24.85;40.84
12781;BME280;6454;43.304;24.344;2022-09-12T12:32:24;99853.47;;;24.98;40.71
12781;BME280;6454;43.304;24.344;2022-09-12T12:35:02;99874.50;;;25.09;41.17
12781;BME280;6454;43.304;24.344;2022-09-12T12:37:56;99863.41;;;25.09;40.65
12781;BME280;6454;43.304;24.344;2022-09-12T12:40:38;99872.97;;;25.19;39.49
12781;BME280;6454;43.304;24.344;2022-09-12T12:43:27;99872.19;;;25.25;39.38
12781;BME280;6454;43.304;24.344;2022-09-12T12:46:08;99880.19;;;25.37;39.45
12781;BME280;6454;43.304;24.344;2022-09-12T12:51:58;99865.06;;;25.31;39.44
12781;BME280;6454;43.304;24.344;2022-09-12T12:57:27;99866.22;;;25.20;40.38
12781;BME280;6454;43.304;24.344;2022-09-12T12:59:58;99862.59;;;25.09;39.98
12781;BME280;6454;43.304;24.344;2022-09-12T13:02:29;99804.84;;;24.53;41.03
12781;BME280;6454;43.304;24.344;2022-09-12T13:05:00;99542.03;;;22.70;40.96
12781;BME280;6454;43.304;24.344;2022-09-12T13:07:31;99852.66;;;24.97;40.71
12781;BME280;6454;43.304;24.344;2022-09-12T13:10:00;99866.19;;;25.09;40.48
12781;BME280;6454;43.304;24.344;2022-09-12T13:12:31;99868.56;;;25.11;39.15
12781;BME280;6454;43.304;24.344;2022-09-12T13:15:00;99864.22;;;25.10;39.16
12781;BME280;6454;43.304;24.344;2022-09-12T13:17:31;99858.69;;;25.20;39.59
12781;BME280;6454;43.304;24.344;2022-09-12T13:20:18;99855.94;;;25.27;38.93
12781;BME280;6454;43.304;24.344;2022-09-12T13:22:48;99776.91;;;24.82;39.21
12781;BME280;6454;43.304;24.344;2022-09-12T13:25:20;99857.16;;;25.40;39.38
12781;BME280;6454;43.304;24.344;2022-09-12T13:28:05;99855.56;;;25.32;38.89
12781;BME280;6454;43.304;24.344;2022-09-12T13:30:34;99850.75;;;25.26;39.07
12781;BME280;6454;43.304;24.344;2022-09-12T13:33:10;99805.47;;;25.01;38.80